Time;durP1;ratioP1;P1;durP2;ratioP2;P2;SDS_P1;SDS_P2;PMS_P1;PMS_P2;Temp;Humidity;BMP_temperature;BMP_pressure;BME280_temperature;BME280_humidity;BME280_pressure;Samples;Min_cycle;Max_cycle;Signal;HPM_P1;HPM_P2
2021/06/28 00:02:16;;;;;;;24.23;14.00;;;;;;;18.21;86.42;101381.22;10539333;28;20048;-60
2021/06/28 00:07:19;;;;;;;12.43;10.75;;;;;;;18.11;87.28;101380.28;10538865;28;20040;-60
2021/06/28 00:12:21;;;;;;;16.83;13.75;;;;;;;18.13;87.09;101375.69;10539392;28;20508;-60
2021/06/28 00:17:24;;;;;;;19.88;14.40;;;;;;;18.34;86.14;101355.41;10538476;28;20070;-60
2021/06/28 00:22:26;;;;;;;20.48;14.65;;;;;;;18.04;87.41;101357.84;10537652;28;20044;-60
2021/06/28 00:27:29;;;;;;;27.63;16.05;;;;;;;17.96;84.99;101356.69;10538363;28;20052;-60
2021/06/28 00:32:31;;;;;;;19.63;13.82;;;;;;;17.98;86.63;101349.44;10538465;28;20054;-60
2021/06/28 00:37:35;;;;;;;23.27;13.60;;;;;;;17.87;87.11;101345.97;10538067;28;20143;-60
2021/06/28 00:42:38;;;;;;;15.13;12.13;;;;;;;17.79;87.43;101342.09;10538310;28;20051;-60
2021/06/28 00:47:40;;;;;;;12.73;9.88;;;;;;;17.85;85.87;101334.63;10536757;28;20496;-60
2021/06/28 00:52:42;;;;;;;22.52;14.95;;;;;;;17.58;87.16;101323.44;10538254;28;20044;-60
2021/06/28 00:57:45;;;;;;;24.60;16.58;;;;;;;17.40;88.13;101320.44;10536714;28;20052;-60
2021/06/28 01:02:48;;;;;;;20.27;15.18;;;;;;;17.38;87.79;101318.88;10536386;28;20044;-60
2021/06/28 01:07:51;;;;;;;37.33;22.38;;;;;;;17.46;86.68;101324.41;10538251;28;20044;-60
2021/06/28 01:12:54;;;;;;;27.33;20.75;;;;;;;17.22;87.42;101319.22;10545282;28;20510;-60
2021/06/28 01:17:56;;;;;;;24.33;17.70;;;;;;;17.33;87.27;101315.75;10545534;28;20040;-60
2021/06/28 01:23:22;;;;;;;26.20;18.52;;;;;;;17.20;87.52;101313.22;10543808;28;20048;-60
2021/06/28 01:28:25;;;;;;;29.17;16.00;;;;;;;17.23;87.24;101312.97;10536153;28;20496;-60
2021/06/28 01:33:29;;;;;;;28.08;18.38;;;;;;;17.16;87.21;101309.09;10544698;28;20054;-60
2021/06/28 01:38:31;;;;;;;23.83;18.85;;;;;;;17.04;87.56;101305.59;10545087;28;20048;-60
2021/06/28 01:43:34;;;;;;;18.83;15.85;;;;;;;17.03;87.28;101304.78;10544524;28;20060;-60
2021/06/28 01:48:37;;;;;;;18.70;16.15;;;;;;;16.96;87.92;101311.47;10543925;28;20048;-60
2021/06/28 01:53:40;;;;;;;18.67;15.63;;;;;;;16.90;87.42;101307.50;10543998;28;20056;-59
2021/06/28 01:58:42;;;;;;;25.20;18.38;;;;;;;17.01;87.14;101309.34;10544488;28;20067;-60
2021/06/28 02:03:44;;;;;;;23.70;17.23;;;;;;;16.95;86.42;101320.38;10543507;28;20051;-59
2021/06/28 02:08:47;;;;;;;39.33;24.98;;;;;;;16.77;87.66;101316.47;10543264;28;20052;-60
2021/06/28 02:13:49;;;;;;;20.75;15.05;;;;;;;16.88;88.06;101303.31;10543417;28;20048;-60
2021/06/28 02:18:51;;;;;;;27.17;19.88;;;;;;;16.89;87.70;101308.47;10542305;28;20088;-59
2021/06/28 02:23:54;;;;;;;24.23;19.10;;;;;;;16.84;87.15;101313.25;10543132;28;20052;-59
2021/06/28 02:28:56;;;;;;;35.75;22.88;;;;;;;16.77;86.98;101317.28;10542094;28;20051;-60
2021/06/28 02:33:58;;;;;;;28.70;21.02;;;;;;;16.76;87.60;101310.34;10542680;28;20060;-60
2021/06/28 02:39:01;;;;;;;27.65;19.67;;;;;;;16.70;86.78;101316.91;10542025;28;20484;-60
2021/06/28 02:44:05;;;;;;;29.85;21.25;;;;;;;16.67;88.30;101313.66;10541824;28;20052;-59
2021/06/28 02:49:07;;;;;;;21.35;18.08;;;;;;;16.57;88.42;101323.25;10541933;28;20044;-60
2021/06/28 02:54:10;;;;;;;22.95;17.08;;;;;;;16.76;86.34;101333.25;10541647;28;20055;-60
2021/06/28 02:59:12;;;;;;;42.83;24.60;;;;;;;16.64;87.15;101317.38;10540926;28;20059;-59
2021/06/28 03:04:16;;;;;;;26.33;18.92;;;;;;;16.58;87.95;101312.56;10539847;28;20048;-60
2021/06/28 03:09:18;;;;;;;27.92;21.52;;;;;;;16.44;87.28;101320.66;10541016;28;20044;-60
2021/06/28 03:14:20;;;;;;;34.78;23.15;;;;;;;16.30;88.06;101316.38;10540343;28;20403;-60
2021/06/28 03:19:23;;;;;;;17.60;15.80;;;;;;;16.38;86.57;101334.34;10540513;28;20052;-60
2021/06/28 03:24:25;;;;;;;19.10;16.92;;;;;;;16.39;86.28;101325.44;10540572;28;20044;-59
2021/06/28 03:29:27;;;;;;;29.42;23.42;;;;;;;16.35;87.41;101327.47;10540137;28;20044;-59
2021/06/28 03:34:30;;;;;;;27.77;22.10;;;;;;;16.25;87.24;101323.81;10539156;28;20078;-60
2021/06/28 03:39:32;;;;;;;19.70;17.65;;;;;;;16.32;86.63;101322.41;10539694;28;20040;-59
2021/06/28 03:44:35;;;;;;;31.35;23.67;;;;;;;16.33;87.44;101324.09;10539545;28;20055;-59
2021/06/28 03:49:37;;;;;;;23.02;19.88;;;;;;;16.09;88.13;101332.03;10539236;28;20051;-60
2021/06/28 03:54:40;;;;;;;26.48;20.52;;;;;;;16.14;87.44;101330.72;10539401;28;20123;-60
2021/06/28 03:59:42;;;;;;;31.95;22.38;;;;;;;16.11;87.22;101327.47;10539199;28;20066;-60
2021/06/28 04:04:48;;;;;;;44.72;28.02;;;;;;;16.17;87.07;101324.34;10538932;28;20441;-60
2021/06/28 04:09:51;;;;;;;30.38;20.92;;;;;;;16.19;86.85;101316.31;10538762;28;20039;-60
2021/06/28 04:14:53;;;;;;;25.40;21.67;;;;;;;16.14;88.01;101306.94;10537265;28;20051;-60
2021/06/28 04:19:55;;;;;;;35.10;22.42;;;;;;;16.07;88.09;101316.28;10538677;28;20040;-60
2021/06/28 04:24:58;;;;;;;22.33;19.40;;;;;;;16.19;87.66;101309.25;10537285;28;20051;-60
2021/06/28 04:30:02;;;;;;;27.92;22.48;;;;;;;16.42;87.07;101317.28;10538675;28;20489;-60
2021/06/28 04:35:06;;;;;;;24.88;19.02;;;;;;;16.36;87.17;101313.31;10537867;28;20480;-60
2021/06/28 04:40:11;;;;;;;22.48;18.98;;;;;;;16.38;86.98;101311.38;10536794;28;20355;-60
2021/06/28 04:45:14;;;;;;;18.85;16.95;;;;;;;16.65;86.61;101316.41;10542848;28;20048;-60
2021/06/28 04:50:18;;;;;;;26.80;19.60;;;;;;;16.59;87.08;101305.44;10546360;28;20040;-60
2021/06/28 04:55:21;;;;;;;32.10;22.50;;;;;;;16.70;87.20;101318.72;10545915;28;20047;-60
2021/06/28 05:00:25;;;;;;;24.80;22.05;;;;;;;16.91;87.42;101321.56;10546296;28;20054;-60
2021/06/28 05:05:27;;;;;;;24.30;19.33;;;;;;;16.99;86.99;101326.28;10544639;28;20040;-60
2021/06/28 05:10:30;;;;;;;22.48;19.98;;;;;;;17.29;86.12;101320.44;10545614;28;20373;-60
2021/06/28 05:15:32;;;;;;;44.33;26.23;;;;;;;17.42;86.15;101318.53;10545734;28;20046;-60
2021/06/28 05:20:36;;;;;;;24.42;21.92;;;;;;;17.48;86.35;101317.19;10545221;28;20458;-60
2021/06/28 05:25:38;;;;;;;26.25;22.98;;;;;;;17.50;86.35;101311.78;10545129;28;20044;-60
2021/06/28 05:30:41;;;;;;;31.00;23.92;;;;;;;17.73;86.52;101313.44;10545304;28;20048;-60
2021/06/28 05:35:44;;;;;;;26.52;22.67;;;;;;;17.74;85.95;101303.72;10545104;28;20051;-60
2021/06/28 05:40:46;;;;;;;18.50;16.80;;;;;;;17.87;86.00;101301.81;10544737;28;20051;-60
2021/06/28 05:45:48;;;;;;;27.63;24.35;;;;;;;17.88;86.74;101295.53;10544610;28;20059;-60
2021/06/28 05:50:51;;;;;;;25.50;22.90;;;;;;;17.82;86.33;101293.34;10542830;28;20070;-60
2021/06/28 05:55:53;;;;;;;30.90;26.00;;;;;;;18.05;86.42;101293.31;10542864;28;20059;-60
2021/06/28 06:00:58;;;;;;;32.53;27.92;;;;;;;17.94;86.88;101289.72;10543412;28;20056;-60
2021/06/28 06:06:00;;;;;;;31.80;28.10;;;;;;;18.30;86.00;101281.56;10543601;28;20050;-60
2021/06/28 06:11:03;;;;;;;34.80;30.08;;;;;;;18.40;86.35;101277.16;10543945;28;20048;-60
2021/06/28 06:16:06;;;;;;;36.67;31.45;;;;;;;18.53;85.57;101285.78;10542970;28;20488;-60
2021/06/28 06:21:08;;;;;;;25.08;22.40;;;;;;;18.36;82.83;101300.44;10541650;28;20098;-60
2021/06/28 06:26:11;;;;;;;25.88;23.15;;;;;;;18.56;85.05;101293.50;10542669;28;20052;-60
2021/06/28 06:31:13;;;;;;;37.92;32.15;;;;;;;18.77;86.12;101294.47;10542019;28;20051;-60
2021/06/28 06:36:15;;;;;;;50.33;38.00;;;;;;;18.85;86.13;101292.88;10541983;28;20054;-60
2021/06/28 06:41:18;;;;;;;28.63;25.60;;;;;;;19.05;85.13;101275.25;10541937;28;20437;-60
2021/06/28 06:46:20;;;;;;;24.73;22.27;;;;;;;19.34;83.56;101268.41;10540740;28;20044;-60
2021/06/28 06:51:23;;;;;;;33.05;29.50;;;;;;;19.32;84.98;101260.56;10541559;28;20052;-60
2021/06/28 06:56:25;;;;;;;32.28;27.55;;;;;;;19.27;85.82;101274.25;10541413;28;20044;-60
2021/06/28 07:01:27;;;;;;;28.23;25.33;;;;;;;19.37;84.59;101270.81;10541233;28;20507;-60
2021/06/28 07:06:30;;;;;;;28.92;25.98;;;;;;;19.52;85.04;101271.25;10539835;28;20097;-60
2021/06/28 07:11:32;;;;;;;32.67;27.00;;;;;;;19.79;83.81;101283.97;10539654;28;20056;-60
2021/06/28 07:16:35;;;;;;;24.60;22.25;;;;;;;19.94;83.00;101273.75;10540610;28;20050;-60
2021/06/28 07:21:38;;;;;;;31.00;27.73;;;;;;;20.10;84.86;101282.03;10540985;28;20090;-60
2021/06/28 07:26:40;;;;;;;24.60;22.02;;;;;;;20.28;82.60;101284.03;10540579;28;20049;-60
2021/06/28 07:31:42;;;;;;;23.08;20.80;;;;;;;20.40;82.95;101288.22;10538849;28;20399;-60
2021/06/28 07:36:45;;;;;;;23.77;21.10;;;;;;;20.51;80.94;101292.53;10539657;28;20399;-60
2021/06/28 07:41:49;;;;;;;24.05;21.15;;;;;;;20.84;79.75;101298.41;10539507;28;20052;-60
2021/06/28 07:46:53;;;;;;;21.35;19.20;;;;;;;21.07;78.10;101304.25;10539809;28;20044;-60
2021/06/28 07:51:56;;;;;;;23.27;20.73;;;;;;;21.33;78.50;101307.97;10539327;28;20487;-60
2021/06/28 07:56:58;;;;;;;21.15;19.15;;;;;;;21.34;76.46;101308.78;10539909;28;20044;-60
2021/06/28 08:02:00;;;;;;;21.58;19.17;;;;;;;21.70;77.19;101307.13;10539520;28;20060;-60
2021/06/28 08:07:03;;;;;;;26.75;21.42;;;;;;;21.88;78.69;101296.47;10537364;28;20050;-60
2021/06/28 08:12:06;;;;;;;20.50;18.60;;;;;;;22.47;75.39;101290.72;10538025;28;20052;-60
2021/06/28 08:17:08;;;;;;;20.92;18.80;;;;;;;23.28;74.14;101294.13;10538250;28;20126;-60
2021/06/28 08:22:11;;;;;;;21.27;18.55;;;;;;;23.68;71.78;101296.13;10538647;28;20058;-60
2021/06/28 08:27:13;;;;;;;21.58;19.55;;;;;;;24.22;73.85;101270.88;10538529;28;20058;-60
2021/06/28 08:32:18;;;;;;;18.42;16.75;;;;;;;24.18;68.98;101270.38;10538314;28;20502;-60
2021/06/28 08:37:20;;;;;;;22.67;20.23;;;;;;;24.17;73.19;101292.75;10536888;28;20052;-60
2021/06/28 08:42:23;;;;;;;20.25;18.23;;;;;;;24.92;67.85;101285.59;10538208;28;20048;-61
2021/06/28 08:47:27;;;;;;;20.88;18.80;;;;;;;25.19;72.19;101289.69;10536703;28;20488;-60
2021/06/28 08:52:35;;;;;;;20.10;18.20;;;;;;;24.93;67.95;101274.72;10536668;28;20048;-60
2021/06/28 08:57:38;;;;;;;19.10;17.42;;;;;;;25.42;71.05;101275.56;10537448;28;20510;-60
2021/06/28 09:02:42;;;;;;;18.80;16.95;;;;;;;25.80;69.06;101270.34;10537933;28;20052;-60
2021/06/28 09:07:45;;;;;;;18.10;16.35;;;;;;;26.52;66.72;101264.63;10538440;28;20120;-60
2021/06/28 09:12:50;;;;;;;18.20;16.60;;;;;;;26.40;69.61;101272.28;10537777;28;20070;-60
2021/06/28 09:17:53;;;;;;;18.35;16.52;;;;;;;25.16;68.93;101273.97;10536634;28;20052;-60
2021/06/28 09:22:55;;;;;;;19.35;17.15;;;;;;;24.21;73.74;101274.53;10537722;28;20089;-61
2021/06/28 09:27:58;;;;;;;18.40;16.60;;;;;;;23.60;72.00;101285.41;10537334;28;20127;-61
2021/06/28 09:33:02;;;;;;;26.00;18.77;;;;;;;23.89;74.66;101290.38;10543502;28;20415;-61
2021/06/28 09:38:06;;;;;;;19.58;17.55;;;;;;;23.89;73.39;101290.38;10543942;28;20074;-61
2021/06/28 09:43:22;;;;;;;20.75;18.00;;;;;;;23.68;74.47;101297.97;10543221;28;20044;-60
2021/06/28 09:48:27;;;;;;;22.58;20.40;;;;;;;23.66;72.10;101308.00;10543988;28;20052;-61
2021/06/28 09:53:29;;;;;;;23.42;21.02;;;;;;;23.42;75.67;101317.59;10543831;28;20489;-61
2021/06/28 09:58:32;;;;;;;23.20;20.70;;;;;;;23.27;75.30;101319.19;10543953;28;20456;-60
2021/06/28 10:03:39;;;;;;;24.70;18.63;;;;;;;23.58;76.50;101306.13;10544024;28;20052;-61
2021/06/28 10:08:51;;;;;;;20.10;18.08;;;;;;;23.62;76.13;101317.31;10542230;28;20044;-60
2021/06/28 10:14:04;;;;;;;19.98;17.88;;;;;;;23.72;76.11;101318.03;10542053;28;20048;-60
2021/06/28 10:19:09;;;;;;;19.30;17.40;;;;;;;23.67;76.72;101317.69;10543545;28;20051;-60
2021/06/28 10:24:11;;;;;;;18.92;16.77;;;;;;;23.84;75.45;101310.56;10542810;28;20054;-60
2021/06/28 10:29:14;;;;;;;20.80;18.67;;;;;;;23.61;77.25;101315.66;10542743;28;20123;-60
2021/06/28 10:34:16;;;;;;;21.73;18.67;;;;;;;23.37;77.54;101306.56;10524489;28;20060;-61
2021/06/28 10:39:30;;;;;;;20.17;18.08;;;;;;;23.35;77.33;101306.72;10541184;28;20048;-61
2021/06/28 10:44:47;;;;;;;20.73;18.55;;;;;;;23.10;78.37;101312.88;10541354;28;20158;-61
2021/06/28 10:49:52;;;;;;;20.58;16.77;;;;;;;22.85;79.19;101299.38;10541870;28;20503;-61
2021/06/28 10:54:54;;;;;;;22.98;20.48;;;;;;;22.82;79.71;101302.34;10540620;28;20059;-61
2021/06/28 10:59:56;;;;;;;19.35;17.42;;;;;;;22.98;79.43;101301.59;10541679;28;20052;-61
2021/06/28 11:04:59;;;;;;;21.95;19.67;;;;;;;22.84;81.11;101302.19;10541726;28;20131;-62
2021/06/28 11:10:02;;;;;;;20.90;18.77;;;;;;;22.82;80.32;101297.84;10539575;28;20052;-61
2021/06/28 11:15:25;;;;;;;24.23;20.65;;;;;;;22.69;81.28;101299.25;10539752;28;20048;-61
2021/06/28 11:20:38;;;;;;;22.45;18.65;;;;;;;22.60;81.35;101298.34;10540564;28;20457;-61
2021/06/28 11:25:45;;;;;;;20.25;18.25;;;;;;;22.67;81.45;101291.41;10540785;28;20108;-61
2021/06/28 11:30:50;;;;;;;18.35;16.58;;;;;;;23.05;80.97;101289.31;10540198;28;20055;-61
2021/06/28 11:35:53;;;;;;;18.08;16.27;;;;;;;23.15;78.42;101299.94;10540024;28;20058;-61
2021/06/28 11:41:09;;;;;;;18.48;15.70;;;;;;;23.05;80.19;101288.47;10539774;28;20044;-61
2021/06/28 11:46:29;;;;;;;20.10;17.33;;;;;;;23.36;78.86;101300.34;10539424;28;20509;-61
2021/06/28 11:51:43;;;;;;;18.40;16.40;;;;;;;23.25;79.70;101284.63;10538961;28;20089;-61
2021/06/28 11:56:54;;;;;;;18.70;16.83;;;;;;;23.47;79.72;101279.69;10538576;28;20127;-61
2021/06/28 12:02:00;;;;;;;20.30;17.75;;;;;;;23.41;79.65;101280.34;10539145;28;20056;-61
2021/06/28 12:07:04;;;;;;;23.08;20.65;;;;;;;23.40;78.37;101276.00;10537749;28;20101;-61
2021/06/28 12:12:16;;;;;;;24.95;22.50;;;;;;;23.41;77.22;101267.81;10537494;28;20494;-61
2021/06/28 12:17:24;;;;;;;28.38;25.38;;;;;;;23.44;76.07;101256.81;10538897;28;20044;-61
2021/06/28 12:22:33;;;;;;;25.67;23.05;;;;;;;23.37;76.62;101248.59;10539143;28;20048;-61
2021/06/28 12:27:37;;;;;;;27.40;23.52;;;;;;;23.07;76.87;101254.47;10537301;28;20496;-61
2021/06/28 12:32:47;;;;;;;26.45;22.42;;;;;;;23.06;78.02;101252.75;10537050;28;20427;-61
2021/06/28 12:37:51;;;;;;;30.90;25.20;;;;;;;22.89;77.61;101255.34;10538583;28;20476;-61
2021/06/28 12:42:56;;;;;;;30.05;26.23;;;;;;;22.67;79.63;101261.22;10538042;28;20507;-61
2021/06/28 12:48:01;;;;;;;25.38;22.67;;;;;;;22.72;79.53;101259.75;10536876;28;20059;-61
2021/06/28 12:53:33;;;;;;;26.65;23.83;;;;;;;22.77;79.74;101269.94;10537942;28;20403;-61
2021/06/28 12:58:54;;;;;;;27.65;24.27;;;;;;;22.54;80.54;101286.44;10519906;28;20052;-61
2021/06/28 13:04:17;;;;;;;32.33;28.90;;;;;;;22.25;81.64;101279.50;10540534;28;20139;-60
2021/06/28 13:09:20;;;;;;;39.80;32.70;;;;;;;22.29;83.67;101261.41;10544720;28;20048;-60
2021/06/28 13:14:56;;;;;;;37.58;31.02;;;;;;;22.00;83.36;101282.94;10544647;28;20048;-60
2021/06/28 13:19:59;;;;;;;35.35;30.33;;;;;;;21.73;84.42;101294.47;10545256;28;20497;-60
2021/06/28 13:25:01;;;;;;;39.97;32.60;;;;;;;22.01;83.32;101298.78;10543841;28;20058;-60
2021/06/28 13:30:17;;;;;;;35.17;28.50;;;;;;;21.85;84.50;101319.94;10545026;28;20048;-60
2021/06/28 13:35:27;;;;;;;30.88;27.67;;;;;;;22.44;83.39;101299.91;10545023;28;20044;-60
2021/06/28 13:40:29;;;;;;;37.83;28.80;;;;;;;22.95;80.58;101278.75;10545491;28;20083;-61
2021/06/28 13:45:41;;;;;;;32.13;27.58;;;;;;;23.38;81.23;101262.78;10544746;28;20058;-60
2021/06/28 13:50:48;;;;;;;29.17;26.08;;;;;;;23.52;80.42;101264.84;10544495;28;20132;-60
2021/06/28 13:55:52;;;;;;;29.73;26.65;;;;;;;24.61;77.30;101255.03;10544251;28;20058;-60
2021/06/28 14:00:57;;;;;;;26.00;23.30;;;;;;;24.26;75.76;101256.19;10543905;28;20056;-60
2021/06/28 14:05:59;;;;;;;36.25;31.95;;;;;;;23.97;80.05;101265.47;10542722;28;20114;-61
2021/06/28 14:11:01;;;;;;;30.23;25.02;;;;;;;23.74;79.52;101252.72;10543550;28;20051;-60
2021/06/28 14:16:04;;;;;;;28.45;24.27;;;;;;;23.64;79.22;101252.03;10542392;28;20055;-60
2021/06/28 14:21:06;;;;;;;26.40;23.60;;;;;;;23.84;78.24;101254.44;10542390;28;20054;-60
2021/06/28 14:26:09;;;;;;;25.48;22.70;;;;;;;24.29;74.93;101263.84;10542726;28;20063;-60
2021/06/28 14:31:11;;;;;;;23.83;19.95;;;;;;;24.34;74.47;101263.34;10543304;28;20044;-60
2021/06/28 14:36:13;;;;;;;24.33;21.55;;;;;;;26.20;72.44;101263.06;10542405;28;20055;-61
2021/06/28 14:41:16;;;;;;;21.73;19.73;;;;;;;26.82;67.00;101259.34;10542306;28;20040;-61
2021/06/28 14:46:18;;;;;;;21.05;19.00;;;;;;;26.26;70.44;101281.13;10542204;28;20130;-60
2021/06/28 14:51:21;;;;;;;24.50;21.30;;;;;;;25.51;68.34;101283.41;10541609;28;20117;-60
2021/06/28 14:56:23;;;;;;;25.27;22.67;;;;;;;24.35;73.95;101289.13;10540384;28;20127;-60
2021/06/28 15:01:26;;;;;;;24.10;21.60;;;;;;;24.98;73.83;101282.22;10541653;28;20060;-61
2021/06/28 15:06:28;;;;;;;26.27;23.58;;;;;;;24.26;76.37;101281.09;10541323;28;20048;-60
2021/06/28 15:11:30;;;;;;;24.35;21.73;;;;;;;24.36;74.28;101283.59;10541187;28;20052;-60
2021/06/28 15:16:33;;;;;;;22.27;20.15;;;;;;;24.01;75.39;101287.41;10540964;28;20433;-61
2021/06/28 15:21:35;;;;;;;24.20;19.98;;;;;;;24.30;76.17;101282.41;10541873;28;20077;-61
2021/06/28 15:26:37;;;;;;;24.63;22.08;;;;;;;23.94;76.79;101279.22;10540546;28;20056;-61
2021/06/28 15:31:40;;;;;;;21.77;19.48;;;;;;;23.77;75.43;101278.31;10541615;28;20059;-61
2021/06/28 15:36:42;;;;;;;25.05;22.45;;;;;;;23.87;77.10;101283.53;10541006;28;20055;-61
2021/06/28 15:41:44;;;;;;;21.52;19.23;;;;;;;24.10;76.46;101271.19;10540890;28;20055;-60
2021/06/28 15:46:47;;;;;;;24.17;20.17;;;;;;;23.98;74.37;101277.88;10540785;28;20403;-62
2021/06/28 15:51:49;;;;;;;20.10;18.13;;;;;;;23.84;73.88;101271.34;10541313;28;20040;-61
2021/06/28 15:56:54;;;;;;;22.80;20.48;;;;;;;23.77;76.64;101266.75;10540913;28;20059;-61
2021/06/28 16:01:57;;;;;;;18.08;16.00;;;;;;;24.06;73.86;101255.66;10540634;28;20056;-61
2021/06/28 16:06:59;;;;;;;21.42;18.38;;;;;;;23.73;76.05;101253.72;10540349;28;20044;-61
2021/06/28 16:12:02;;;;;;;20.45;16.80;;;;;;;23.88;75.75;101237.06;10540054;28;20052;-61
2021/06/28 16:17:07;;;;;;;16.83;15.13;;;;;;;24.00;71.36;101241.09;10539789;28;20525;-61
2021/06/28 16:22:09;;;;;;;16.92;15.07;;;;;;;25.16;68.16;101237.28;10539980;28;20048;-61
2021/06/28 16:27:12;;;;;;;17.13;15.57;;;;;;;24.81;70.48;101225.19;10538603;28;20048;-61
2021/06/28 16:32:14;;;;;;;18.73;16.73;;;;;;;25.47;67.38;101223.13;10539546;28;20056;-61
2021/06/28 16:37:17;;;;;;;18.23;16.50;;;;;;;25.08;68.28;101220.41;10539560;28;20051;-61
2021/06/28 16:42:19;;;;;;;18.13;16.23;;;;;;;24.98;69.58;101218.78;10546364;28;20040;-61
2021/06/28 16:47:21;;;;;;;20.38;18.38;;;;;;;24.73;67.76;101209.13;10547728;28;20060;-61
2021/06/28 16:52:24;;;;;;;17.95;15.27;;;;;;;24.82;68.70;101213.47;10547694;28;20052;-61
2021/06/28 16:57:27;;;;;;;14.25;12.85;;;;;;;24.57;65.91;101210.00;10547440;28;20055;-61
2021/06/28 17:02:30;;;;;;;12.15;10.85;;;;;;;24.21;68.66;101224.56;10547775;28;20056;-61
2021/06/28 17:07:32;;;;;;;10.38;9.27;;;;;;;24.12;67.40;101225.56;10547975;28;20048;-61
2021/06/28 17:12:36;;;;;;;8.77;7.90;;;;;;;23.97;68.98;101216.53;10546990;28;20423;-61
2021/06/28 17:17:39;;;;;;;11.90;10.50;;;;;;;23.50;68.43;101218.75;10547543;28;20099;-61
2021/06/28 17:22:43;;;;;;;11.35;10.30;;;;;;;23.61;69.35;101208.75;10546711;28;20044;-61
2021/06/28 17:27:45;;;;;;;11.45;10.35;;;;;;;23.40;68.71;101193.16;10545277;28;20051;-61
2021/06/28 17:32:48;;;;;;;13.18;10.45;;;;;;;22.86;72.33;101194.25;10546337;28;20052;-61
2021/06/28 17:37:52;;;;;;;10.30;8.65;;;;;;;22.73;73.95;101175.16;10545799;28;20047;-61
2021/06/28 17:42:54;;;;;;;10.07;9.07;;;;;;;22.50;76.40;101185.56;10545844;28;20040;-61
2021/06/28 17:47:57;;;;;;;11.00;9.85;;;;;;;22.43;77.81;101188.84;10545590;28;20127;-61
2021/06/28 17:52:59;;;;;;;10.38;9.27;;;;;;;22.53;75.51;101191.41;10543582;28;20044;-61
2021/06/28 17:58:02;;;;;;;10.65;9.55;;;;;;;22.57;75.69;101184.75;10545005;28;20078;-61
2021/06/28 18:03:05;;;;;;;12.90;11.48;;;;;;;22.24;78.47;101186.31;10544992;28;20051;-61
2021/06/28 18:08:07;;;;;;;13.13;10.10;;;;;;;22.33;77.89;101195.28;10544901;28;20055;-61
2021/06/28 18:13:09;;;;;;;10.18;9.25;;;;;;;22.41;74.13;101182.00;10544591;28;20414;-61
2021/06/28 18:18:13;;;;;;;9.65;8.80;;;;;;;22.33;77.42;101171.28;10544257;28;20049;-61
2021/06/28 18:23:16;;;;;;;8.73;7.97;;;;;;;22.43;71.32;101172.00;10544412;28;20044;-61
2021/06/28 18:28:18;;;;;;;10.95;7.85;;;;;;;22.32;76.00;101164.25;10543742;28;20396;-61
2021/06/28 18:33:20;;;;;;;7.95;7.15;;;;;;;22.21;76.71;101159.97;10544218;28;20048;-61
2021/06/28 18:38:23;;;;;;;7.63;6.90;;;;;;;21.96;77.87;101156.28;10543444;28;20048;-61
2021/06/28 18:43:29;;;;;;;8.23;7.35;;;;;;;21.74;79.84;101170.88;10541963;28;20381;-61
2021/06/28 18:48:33;;;;;;;7.68;7.07;;;;;;;21.69;78.79;101179.38;10542206;28;20048;-61
2021/06/28 18:53:40;;;;;;;9.70;8.40;;;;;;;21.40;81.39;101187.50;10543707;28;20048;-61
2021/06/28 18:58:42;;;;;;;13.23;11.32;;;;;;;20.91;83.82;101193.06;10542358;28;20530;-61
2021/06/28 19:03:44;;;;;;;12.48;9.57;;;;;;;20.86;83.77;101185.50;10541994;28;20506;-61
2021/06/28 19:08:47;;;;;;;12.20;7.68;;;;;;;20.91;82.23;101190.41;10541185;28;20495;-61
2021/06/28 19:13:49;;;;;;;14.25;9.40;;;;;;;20.65;83.86;101188.41;10542467;28;20397;-61
2021/06/28 19:18:51;;;;;;;9.90;9.10;;;;;;;20.66;82.95;101190.09;10540935;28;20051;-61
2021/06/28 19:23:54;;;;;;;9.75;8.60;;;;;;;20.76;83.70;101193.56;10541697;28;20598;-61
2021/06/28 19:29:00;;;;;;;9.00;7.20;;;;;;;20.73;83.08;101199.16;10541972;28;20044;-62
2021/06/28 19:34:03;;;;;;;8.82;7.95;;;;;;;20.80;83.33;101196.75;10541373;28;20056;-61
2021/06/28 19:39:06;;;;;;;8.75;7.03;;;;;;;20.74;83.20;101198.16;10541161;28;20054;-61
2021/06/28 19:44:08;;;;;;;9.05;7.55;;;;;;;20.57;83.47;101194.38;10540946;28;20056;-61
2021/06/28 19:49:11;;;;;;;11.40;8.82;;;;;;;20.41;83.16;101197.66;10539770;28;20051;-61
2021/06/28 19:54:13;;;;;;;9.38;8.38;;;;;;;20.36;84.48;101196.41;10541308;28;20052;-61
2021/06/28 19:59:15;;;;;;;10.18;9.07;;;;;;;20.08;84.08;101195.47;10540997;28;20056;-61
2021/06/28 20:04:19;;;;;;;9.50;8.32;;;;;;;19.89;85.78;101206.91;10540546;28;20040;-61
2021/06/28 20:09:21;;;;;;;11.50;8.90;;;;;;;19.82;85.39;101207.47;10540222;28;20380;-61
2021/06/28 20:14:24;;;;;;;10.77;9.20;;;;;;;19.78;85.40;101215.84;10539407;28;20411;-61
2021/06/28 20:19:26;;;;;;;10.63;9.63;;;;;;;19.69;86.01;101236.09;10540904;28;20067;-60
2021/06/28 20:24:31;;;;;;;15.88;11.35;;;;;;;19.61;85.95;101249.22;10539754;28;20494;-61
2021/06/28 20:29:33;;;;;;;14.85;13.05;;;;;;;19.70;85.67;101248.38;10540251;28;20055;-61
2021/06/28 20:34:36;;;;;;;12.00;10.95;;;;;;;19.49;85.94;101245.81;10539639;28;20118;-60
2021/06/28 20:39:38;;;;;;;16.00;13.65;;;;;;;19.41;85.47;101248.31;10540113;28;20400;-61
2021/06/28 20:44:40;;;;;;;14.48;13.07;;;;;;;19.41;85.00;101257.09;10539495;28;20046;-61
2021/06/28 20:49:43;;;;;;;15.55;13.70;;;;;;;19.28;85.76;101256.50;10539504;28;20415;-61
2021/06/28 20:54:46;;;;;;;15.48;13.98;;;;;;;19.28;85.59;101251.19;10538652;28;20044;-60
2021/06/28 20:59:48;;;;;;;17.65;15.32;;;;;;;19.35;84.94;101249.69;10539391;28;20059;-60
2021/06/28 21:04:50;;;;;;;17.70;12.82;;;;;;;19.26;85.51;101261.09;10539617;28;20047;-61
2021/06/28 21:09:52;;;;;;;18.83;15.48;;;;;;;19.17;86.31;101254.78;10538588;28;20048;-60
2021/06/28 21:14:55;;;;;;;14.98;13.48;;;;;;;19.23;85.50;101248.97;10539022;28;20044;-60
2021/06/28 21:19:57;;;;;;;14.40;13.02;;;;;;;19.29;84.02;101242.25;10537789;28;20040;-61
2021/06/28 21:25:00;;;;;;;14.90;13.50;;;;;;;18.95;86.89;101253.16;10541346;28;20051;-60
2021/06/28 21:30:03;;;;;;;15.73;14.32;;;;;;;19.00;86.93;101258.06;10547141;28;20044;-60
2021/06/28 21:35:06;;;;;;;15.30;13.88;;;;;;;19.04;86.09;101251.50;10545234;28;20048;-60
2021/06/28 21:40:09;;;;;;;18.45;15.02;;;;;;;18.96;86.53;101241.53;10546208;28;20046;-60
2021/06/28 21:45:13;;;;;;;16.52;14.20;;;;;;;18.97;86.14;101229.97;10544602;28;20044;-60
2021/06/28 21:50:15;;;;;;;17.08;14.27;;;;;;;18.82;86.74;101228.59;10545717;28;20127;-60
2021/06/28 21:55:18;;;;;;;17.92;15.75;;;;;;;18.81;86.46;101224.25;10545348;28;20488;-61
2021/06/28 22:00:22;;;;;;;19.27;15.65;;;;;;;18.82;86.44;101218.81;10545322;28;20052;-60
2021/06/28 22:05:29;;;;;;;18.67;16.80;;;;;;;18.79;86.76;101199.69;10527934;28;20048;-60
2021/06/28 22:10:31;;;;;;;21.73;18.27;;;;;;;18.82;86.69;101205.56;10545008;28;20055;-61
2021/06/28 22:15:33;;;;;;;18.25;15.85;;;;;;;18.80;87.21;101193.41;10545260;28;20058;-60
2021/06/28 22:20:39;;;;;;;21.33;18.65;;;;;;;18.78;86.67;101182.94;10544654;28;20051;-60
2021/06/28 22:25:42;;;;;;;20.98;18.88;;;;;;;18.74;87.10;101178.84;10544199;28;20412;-60
2021/06/28 22:30:44;;;;;;;21.73;17.60;;;;;;;18.77;86.66;101177.78;10543454;28;20040;-60
2021/06/28 22:35:46;;;;;;;31.13;24.13;;;;;;;18.71;87.44;101185.28;10542959;28;20048;-60
2021/06/28 22:40:49;;;;;;;23.35;20.77;;;;;;;18.72;86.82;101183.47;10544337;28;20047;-60
2021/06/28 22:45:51;;;;;;;27.23;24.30;;;;;;;18.68;86.89;101188.19;10543423;28;20039;-60